Rechercher aéroport 
image banner adimage banner adimage banner ad
image banner ad

1CL6 - Lake Park Helistop

Situé à Sacramento, United States

ICAO - 1CL6, IATA -

Données fournies par Airmate  

Information générale

Coordonnées: N38°32'52" W121°22'38"
Élévation : 45 feet MSL.
Variation magnétique : 16° East
Voir autres Aéroports à California

Données opérationnelles

Special qualification required
Heure actuelle UTC:
Heure actuelle locale:
Météo à : KMHR - Sacramento Mather ( 7 km )
TAF: KMHR 250533Z 2506/2606 15007KT P6SM SCT200 FM251800 23009KT P6SM SCT200 FM260000 22010KT P6SM BKN250 AMD NOT SKED
Voir NOTAMs / SUP AIP / TFR affectant cet aéroport [VIEW]
Fréquences de communication: [VIEW]

Pistes:

Coordonnées de l'aéroport

Adresse: Sacramento United States

Vue satellite de 1CL6